Time;durP1;ratioP1;P1;durP2;ratioP2;P2;SDS_P1;SDS_P2;PMS_P1;PMS_P2;Temp;Humidity;BMP_temperature;BMP_pressure;BME280_temperature;BME280_humidity;BME280_pressure;Samples;Min_cycle;Max_cycle;Signal;HPM_P1;HPM_P2
2021/10/31 00:01:45;;;;;;;10.63;5.82;;;12.60;99.90;;;11.52;100.00;62157.75;5093185;28;20453;-72
2021/10/31 00:04:12;;;;;;;9.43;6.32;;;12.50;99.90;;;11.52;100.00;62158.19;5091305;28;20067;-71
2021/10/31 00:06:39;;;;;;;9.30;6.50;;;12.60;99.90;;;11.53;100.00;62158.72;5073640;28;20461;-71
2021/10/31 00:09:07;;;;;;;10.23;5.70;;;12.60;99.90;;;11.54;100.00;62159.28;5095803;28;20556;-72
2021/10/31 00:11:35;;;;;;;14.23;6.85;;;12.60;99.90;;;11.54;100.00;62159.78;5095595;28;20060;-70
2021/10/31 00:14:03;;;;;;;11.90;6.32;;;12.60;99.90;;;11.54;100.00;62159.63;5085747;28;20163;-72
2021/10/31 00:16:30;;;;;;;14.38;7.00;;;12.60;99.90;;;11.54;100.00;62159.50;5098196;28;20067;-71
2021/10/31 00:18:57;;;;;;;10.70;7.28;;;12.60;99.90;;;11.54;100.00;62159.78;5088204;28;20128;-71
2021/10/31 00:21:26;;;;;;;10.00;6.05;;;12.50;99.90;;;11.55;100.00;62160.22;5094044;28;20165;-71
2021/10/31 00:23:54;;;;;;;9.40;5.90;;;12.60;99.90;;;11.55;100.00;62160.66;5057760;28;20125;-72
2021/10/31 00:26:23;;;;;;;10.35;5.75;;;12.70;99.90;;;11.55;100.00;62161.41;5092599;28;20080;-72
2021/10/31 00:28:50;;;;;;;9.23;6.00;;;12.70;99.90;;;11.56;100.00;62162.38;5076113;28;20528;-71
2021/10/31 00:31:17;;;;;;;9.85;6.20;;;12.60;99.90;;;11.57;100.00;62163.22;5096405;28;20478;-71
2021/10/31 00:33:45;;;;;;;9.73;5.95;;;12.60;99.90;;;11.57;100.00;62163.69;5089857;28;20070;-71
2021/10/31 00:36:12;;;;;;;8.57;5.70;;;12.70;99.90;;;11.58;100.00;62164.69;5094782;28;20044;-71
2021/10/31 00:38:39;;;;;;;8.57;5.30;;;12.70;99.90;;;11.58;100.00;62164.78;5097520;28;20068;-71
2021/10/31 00:41:06;;;;;;;10.25;5.78;;;12.70;99.90;;;11.59;100.00;62165.78;5095073;28;20040;-72
2021/10/31 00:43:33;;;;;;;10.98;6.20;;;12.70;99.90;;;11.60;100.00;62166.31;5113434;28;20055;-70
2021/10/31 00:46:00;;;;;;;8.73;4.63;;;12.70;99.90;;;11.61;100.00;62167.09;5107694;28;20157;-72
2021/10/31 00:48:27;;;;;;;8.48;4.85;;;12.70;99.90;;;11.62;100.00;62168.53;5093415;28;20230;-71
2021/10/31 00:50:55;;;;;;;11.07;5.50;;;;;;;11.62;100.00;62169.50;5091009;28;20043;-70
2021/10/31 00:53:24;;;;;;;6.90;5.15;;;;;;;11.64;100.00;62170.44;5095624;28;20505;-70
2021/10/31 00:55:52;;;;;;;9.38;5.13;;;;;;;11.64;100.00;62171.75;5091896;28;20127;-70
2021/10/31 00:58:20;;;;;;;7.50;4.93;;;;;;;11.65;100.00;62172.56;5061852;28;20083;-70
2021/10/31 01:00:48;;;;;;;8.60;4.85;;;;;;;11.66;100.00;62173.94;5091370;28;20077;-70
2021/10/31 01:03:16;;;;;;;9.73;5.85;;;;;;;11.67;100.00;62175.00;5074672;28;20501;-71
2021/10/31 01:05:58;;;;;;;8.68;5.43;;;;;;;11.68;100.00;62176.28;5095945;28;20112;-70
2021/10/31 01:08:38;;;;;;;7.57;5.10;;;;;;;11.70;100.00;62177.78;5079638;28;20043;-70
2021/10/31 01:11:43;;;;;;;9.02;4.93;;;;;;;11.71;100.00;62178.25;5094421;28;20071;-70
2021/10/31 01:15:07;;;;;;;8.63;5.38;;;12.70;99.90;;;11.71;100.00;62178.66;5091661;28;20108;-71
2021/10/31 01:18:01;;;;;;;7.38;5.25;;;;;;;11.72;100.00;62179.94;5087089;28;20564;-70
2021/10/31 01:20:51;;;;;;;8.57;4.68;;;;;;;11.73;100.00;62181.38;5066152;28;20080;-71
2021/10/31 01:23:48;;;;;;;7.00;5.03;;;12.70;99.90;;;11.73;100.00;62181.47;5087609;28;20076;-70
2021/10/31 01:26:34;;;;;;;8.35;5.07;;;;;;;11.74;100.00;62182.28;5075527;28;20419;-70
2021/10/31 01:29:41;;;;;;;6.70;4.55;;;;;;;11.75;100.00;62183.13;5082568;28;20151;-71
2021/10/31 01:32:16;;;;;;;6.70;4.90;;;;;;;11.75;100.00;62183.06;5081212;28;20101;-71
2021/10/31 01:35:03;;;;;;;8.35;4.60;;;;;;;11.76;100.00;62183.63;5075013;28;20087;-70
2021/10/31 01:37:36;;;;;;;7.03;4.15;;;;;;;11.77;100.00;62184.53;5066330;28;20087;-70
2021/10/31 01:40:10;;;;;;;6.68;4.63;;;;;;;11.77;100.00;62185.09;5065073;28;20060;-70
2021/10/31 01:42:57;;;;;;;6.05;4.20;;;;;;;11.78;100.00;62185.94;5083733;28;20134;-71
2021/10/31 01:45:43;;;;;;;6.45;4.22;;;;;;;11.78;100.00;62186.47;5079118;28;20130;-70
2021/10/31 01:48:52;;;;;;;8.85;4.82;;;;;;;11.79;100.00;62187.72;5085448;28;20063;-71
2021/10/31 01:51:35;;;;;;;6.82;4.35;;;12.80;99.90;;;11.80;100.00;62188.16;5079395;28;20045;-71
2021/10/31 01:54:10;;;;;;;8.05;4.95;;;12.90;99.90;;;11.80;100.00;62188.53;5069065;28;20040;-70
2021/10/31 01:56:42;;;;;;;6.65;4.68;;;12.90;99.90;;;11.81;100.00;62189.09;5074229;28;20128;-71
2021/10/31 01:59:18;;;;;;;7.47;4.63;;;12.90;99.90;;;11.81;100.00;62189.63;5072117;28;20087;-71
2021/10/31 02:01:46;;;;;;;8.00;4.60;;;12.90;99.90;;;11.82;100.00;62190.63;5071771;28;20110;-70
2021/10/31 02:04:15;;;;;;;6.70;4.38;;;12.80;99.90;;;11.82;100.00;62191.06;5071606;28;20140;-70
2021/10/31 02:06:47;;;;;;;7.78;4.78;;;12.80;99.90;;;11.83;100.00;62191.88;5067981;28;20079;-70
2021/10/31 02:09:19;;;;;;;13.85;4.63;;;12.90;99.90;;;11.83;100.00;62192.56;5091367;28;20171;-71
2021/10/31 02:11:48;;;;;;;8.68;5.53;;;12.80;99.90;;;11.84;100.00;62192.97;5056601;28;20074;-70
2021/10/31 02:14:17;;;;;;;8.38;5.38;;;12.90;99.90;;;11.84;100.00;62192.72;5070573;28;20139;-70
2021/10/31 02:16:45;;;;;;;7.90;5.50;;;12.90;99.90;;;11.84;100.00;62192.72;5061976;28;20582;-70
2021/10/31 02:19:30;;;;;;;10.60;4.47;;;12.90;99.90;;;11.84;100.00;62193.25;5063119;28;20063;-70
2021/10/31 02:22:01;;;;;;;10.13;4.80;;;12.90;99.90;;;11.85;100.00;62193.91;5074589;28;20044;-70
2021/10/31 02:24:30;;;;;;;9.75;4.93;;;12.90;99.90;;;11.85;100.00;62194.19;5073837;28;20538;-70
2021/10/31 02:26:57;;;;;;;6.00;4.47;;;12.90;99.90;;;11.85;100.00;62193.91;5066274;28;20049;-70
2021/10/31 02:29:24;;;;;;;8.32;4.13;;;12.90;99.90;;;11.86;100.00;62194.84;5074027;28;20458;-71
2021/10/31 02:31:51;;;;;;;5.35;3.80;;;12.90;99.90;;;11.87;100.00;62195.41;5084840;28;20076;-70
2021/10/31 02:34:18;;;;;;;7.43;4.30;;;12.90;99.90;;;11.87;100.00;62195.66;5079676;28;20171;-71
2021/10/31 02:36:46;;;;;;;5.47;3.67;;;12.90;99.90;;;11.87;100.00;62195.50;5085377;28;20068;-70
2021/10/31 02:39:13;;;;;;;7.88;4.15;;;12.90;99.90;;;11.87;100.00;62195.81;5092102;28;20071;-70
2021/10/31 02:41:40;;;;;;;8.35;3.97;;;12.90;99.90;;;11.87;100.00;62196.25;5090818;28;20074;-70
2021/10/31 02:44:07;;;;;;;6.00;3.28;;;12.90;99.90;;;11.87;100.00;62196.56;5083907;28;20062;-70
2021/10/31 02:46:36;;;;;;;5.57;3.97;;;12.80;99.90;;;11.88;100.00;62196.66;5081097;28;20131;-70
2021/10/31 02:49:05;;;;;;;9.38;4.10;;;12.80;99.90;;;11.88;100.00;62197.09;5066595;28;20132;-70
2021/10/31 02:51:56;;;;;;;6.80;4.20;;;12.80;99.90;;;11.88;100.00;62196.81;5078544;28;20056;-70
2021/10/31 02:55:17;;;;;;;5.55;3.58;;;12.80;99.90;;;11.87;100.00;62196.88;5072572;28;20127;-70
2021/10/31 02:58:21;;;;;;;9.15;4.10;;;12.80;99.90;;;11.87;100.00;62196.88;5053630;28;20103;-71
2021/10/31 03:00:54;;;;;;;5.38;3.33;;;12.90;99.90;;;11.88;100.00;62197.41;5078290;28;20497;-70
2021/10/31 03:03:22;;;;;;;5.93;3.72;;;12.80;99.90;;;11.88;100.00;62197.69;5073812;28;20048;-70
2021/10/31 03:05:52;;;;;;;5.55;3.13;;;12.80;99.90;;;11.88;100.00;62198.16;5066828;28;20075;-70
2021/10/31 03:08:20;;;;;;;5.60;3.50;;;12.90;99.90;;;11.89;100.00;62198.56;5074179;28;20135;-71
2021/10/31 03:10:57;;;;;;;8.60;4.07;;;12.90;99.90;;;11.89;100.00;62199.28;5062620;28;20131;-70
2021/10/31 03:13:27;;;;;;;7.18;3.92;;;12.90;99.90;;;11.89;100.00;62199.31;5056196;28;20056;-71
2021/10/31 03:15:55;;;;;;;6.93;3.58;;;12.90;99.90;;;11.89;100.00;62199.06;5086631;28;20079;-70
2021/10/31 03:18:23;;;;;;;5.28;2.88;;;12.90;99.90;;;11.89;100.00;62199.66;5091563;28;20136;-70
2021/10/31 03:20:50;;;;;;;6.80;3.30;;;12.90;99.90;;;11.89;100.00;62199.81;5073322;28;20458;-69
2021/10/31 03:23:17;;;;;;;7.03;3.28;;;12.90;99.90;;;11.89;100.00;62199.66;5087279;28;20196;-69
2021/10/31 03:25:44;;;;;;;5.43;2.80;;;12.80;99.90;;;11.89;100.00;62199.66;5089555;28;20185;-70
2021/10/31 03:28:12;;;;;;;5.15;3.22;;;12.80;99.90;;;11.89;100.00;62199.31;5069986;28;20079;-70
2021/10/31 03:30:40;;;;;;;6.03;3.38;;;12.90;99.90;;;11.89;100.00;62199.50;5090843;28;20044;-70
2021/10/31 03:33:07;;;;;;;6.05;3.17;;;12.90;99.90;;;11.89;100.00;62199.16;5085545;28;20498;-70
2021/10/31 03:35:35;;;;;;;4.63;3.20;;;12.90;99.90;;;11.89;100.00;62199.59;5062680;28;20475;-71
2021/10/31 03:38:03;;;;;;;5.80;3.35;;;12.90;99.90;;;11.90;100.00;62200.16;5067760;28;20044;-71
2021/10/31 03:40:30;;;;;;;6.03;3.30;;;12.90;99.90;;;11.90;100.00;62200.31;5081042;28;20439;-70
2021/10/31 03:42:57;;;;;;;5.38;2.60;;;13.00;99.90;;;11.90;100.00;62200.16;5072753;28;20045;-71
2021/10/31 03:45:25;;;;;;;6.05;2.88;;;13.00;99.90;;;11.90;100.00;62200.41;5067200;28;20056;-70
2021/10/31 03:47:52;;;;;;;4.78;2.90;;;12.90;99.90;;;11.90;100.00;62200.75;5084242;28;20059;-71
2021/10/31 03:50:24;;;;;;;4.03;2.50;;;12.90;99.90;;;11.90;100.00;62201.28;5099613;28;20063;-71
2021/10/31 03:52:51;;;;;;;5.10;2.88;;;12.90;99.90;;;11.91;100.00;62202.28;5090343;28;20453;-70
2021/10/31 03:55:19;;;;;;;5.53;2.92;;;12.90;99.90;;;11.92;100.00;62202.94;5082671;28;20106;-70
2021/10/31 03:57:46;;;;;;;5.88;2.42;;;12.90;99.90;;;11.92;100.00;62203.47;5074772;28;20470;-70
2021/10/31 04:00:15;;;;;;;5.63;2.97;;;12.90;99.90;;;11.93;100.00;62203.59;5071116;28;20453;-70
2021/10/31 04:02:43;;;;;;;6.22;2.28;;;12.90;99.90;;;11.93;100.00;62204.41;5053848;28;20079;-70
2021/10/31 04:05:12;;;;;;;6.13;3.25;;;12.90;99.90;;;11.94;100.00;62204.53;5066416;28;20053;-70
2021/10/31 04:07:40;;;;;;;4.93;2.72;;;12.90;99.90;;;11.95;100.00;62205.50;5079922;28;20128;-70
2021/10/31 04:10:08;;;;;;;7.13;2.67;;;13.00;99.90;;;11.96;100.00;62206.44;5081151;28;20112;-71
2021/10/31 04:12:35;;;;;;;4.18;2.55;;;13.00;99.90;;;11.96;100.00;62206.81;5080438;28;20056;-71
2021/10/31 04:15:05;;;;;;;4.50;2.50;;;13.00;99.90;;;11.97;100.00;62207.47;5082914;28;20102;-70
2021/10/31 04:17:32;;;;;;;7.20;2.90;;;13.00;99.90;;;11.97;100.00;62208.53;5071096;28;20467;-70
2021/10/31 04:20:00;;;;;;;9.80;3.13;;;13.00;99.90;;;11.98;100.00;62209.03;5087930;28;20071;-70
2021/10/31 04:22:30;;;;;;;4.78;2.90;;;13.00;99.90;;;11.99;100.00;62209.25;5086145;28;20045;-70
2021/10/31 04:24:58;;;;;;;6.15;2.60;;;13.00;99.90;;;11.99;100.00;62210.06;5065572;28;20054;-71
2021/10/31 04:27:25;;;;;;;6.03;2.40;;;;;;;12.00;100.00;62210.84;5070652;28;20447;-71
2021/10/31 04:29:53;;;;;;;4.75;2.22;;;;;;;12.00;100.00;62211.22;5077348;28;20193;-71
2021/10/31 04:32:21;;;;;;;3.33;1.98;;;13.10;99.90;;;12.00;100.00;62211.66;5069956;28;20123;-71
2021/10/31 04:34:49;;;;;;;6.47;2.15;;;;;;;12.01;100.00;62212.78;5084910;28;20516;-70
2021/10/31 04:37:17;;;;;;;3.30;1.88;;;;;;;12.02;100.00;62213.72;5070790;28;20210;-71
2021/10/31 04:39:47;;;;;;;5.40;2.28;;;;;;;12.03;100.00;62215.09;5083763;28;20560;-70
2021/10/31 04:42:16;;;;;;;5.57;2.28;;;;;;;12.04;100.00;62215.91;5086738;28;20101;-70
2021/10/31 04:44:43;;;;;;;3.35;1.95;;;;;;;12.06;100.00;62217.28;5064433;28;20072;-70
2021/10/31 04:47:11;;;;;;;2.85;1.80;;;;;;;12.06;100.00;62217.66;5081944;28;20139;-70
2021/10/31 04:49:39;;;;;;;6.85;2.15;;;;;;;12.07;100.00;62218.38;5078049;28;20076;-70
2021/10/31 04:52:07;;;;;;;5.05;1.83;;;;;;;12.07;100.00;62219.53;5080974;28;20095;-71
2021/10/31 04:54:35;;;;;;;3.17;1.50;;;;;;;12.08;100.00;62220.44;5068145;28;20140;-69
2021/10/31 04:57:03;;;;;;;3.03;2.00;;;;;;;12.09;100.00;62221.19;5083707;28;20509;-69
2021/10/31 04:59:31;;;;;;;5.00;1.80;;;;;;;12.09;100.00;62221.03;5083208;28;20106;-70
2021/10/31 05:01:59;;;;;;;4.95;1.92;;;;;;;12.08;100.00;62220.94;5051528;28;20122;-69
2021/10/31 05:04:27;;;;;;;4.78;2.05;;;;;;;12.08;100.00;62220.66;5088407;28;20093;-70
2021/10/31 05:06:55;;;;;;;4.45;1.70;;;;;;;12.08;100.00;62220.56;5075386;28;20135;-70
2021/10/31 05:09:23;;;;;;;3.92;2.20;;;;;;;12.08;100.00;62220.72;5085043;28;20075;-70
2021/10/31 05:11:51;;;;;;;7.15;2.13;;;;;;;12.08;100.00;62220.13;5041518;28;20127;-70
2021/10/31 05:14:19;;;;;;;4.68;1.65;;;;;;;12.07;100.00;62219.56;5088788;28;20085;-70
2021/10/31 05:16:46;;;;;;;5.65;2.17;;;12.90;99.90;;;12.07;100.00;62218.97;5077082;28;20086;-70
2021/10/31 05:19:13;;;;;;;4.50;1.85;;;12.90;99.90;;;12.06;100.00;62218.75;5084927;28;20519;-69
2021/10/31 05:21:40;;;;;;;4.43;1.67;;;12.90;99.90;;;12.06;100.00;62218.19;5088351;28;20463;-69
2021/10/31 05:24:08;;;;;;;3.85;1.90;;;;;;;12.05;100.00;62217.09;5081498;28;20080;-69
2021/10/31 05:26:35;;;;;;;4.07;1.80;;;;;;;12.04;100.00;62216.44;5073803;28;20041;-69
2021/10/31 05:29:02;;;;;;;3.42;1.77;;;12.90;99.90;;;12.03;100.00;62215.78;5088360;28;20072;-70
2021/10/31 05:31:29;;;;;;;4.00;2.08;;;12.90;99.90;;;12.03;100.00;62214.91;5064222;28;20079;-69
2021/10/31 05:33:57;;;;;;;4.32;2.00;;;12.90;99.90;;;12.02;100.00;62214.69;5077441;28;20409;-70
2021/10/31 05:36:24;;;;;;;4.85;2.13;;;12.90;99.90;;;12.01;100.00;62214.06;5062863;28;20131;-71
2021/10/31 05:38:51;;;;;;;5.57;2.70;;;12.90;99.90;;;12.00;100.00;62213.00;5096535;28;20124;-70
2021/10/31 05:41:18;;;;;;;4.20;1.90;;;12.90;99.90;;;12.00;100.00;62212.56;5079279;28;20113;-70
2021/10/31 05:43:45;;;;;;;5.07;2.20;;;12.90;99.90;;;11.99;100.00;62211.88;5084180;28;20178;-73
2021/10/31 05:46:15;;;;;;;4.25;2.47;;;12.90;99.90;;;11.98;100.00;62211.06;5072752;28;20084;-69
2021/10/31 05:48:45;;;;;;;3.17;2.05;;;12.90;99.90;;;11.98;100.00;62210.69;5070755;28;20048;-72
2021/10/31 05:51:16;;;;;;;4.85;2.20;;;12.90;99.90;;;11.97;100.00;62210.16;5071701;28;20464;-73
2021/10/31 05:53:45;;;;;;;4.05;2.17;;;12.90;99.90;;;11.97;100.00;62209.91;5068134;28;20470;-71
2021/10/31 05:56:21;;;;;;;5.85;2.05;;;12.90;99.90;;;11.97;100.00;62209.78;5054334;28;20563;-71
2021/10/31 05:58:52;;;;;;;4.13;2.40;;;12.90;99.90;;;11.96;100.00;62209.34;5058233;28;20070;-72
2021/10/31 06:01:20;;;;;;;6.55;2.72;;;12.90;99.90;;;11.96;100.00;62208.81;5081624;28;20256;-71
2021/10/31 06:03:49;;;;;;;3.55;2.55;;;12.90;99.90;;;11.96;100.00;62208.22;5088951;28;20562;-73
2021/10/31 06:06:23;;;;;;;6.70;2.58;;;12.90;99.90;;;11.95;100.00;62207.38;5053349;28;20074;-71
2021/10/31 06:08:50;;;;;;;4.88;2.80;;;12.90;99.90;;;11.94;100.00;62206.91;5070829;28;20078;-71
2021/10/31 06:11:18;;;;;;;3.42;2.35;;;12.90;99.90;;;11.93;100.00;62205.91;5084522;28;20088;-71
2021/10/31 06:13:45;;;;;;;3.42;2.30;;;12.90;99.90;;;11.93;100.00;62205.75;5066857;28;20492;-71
2021/10/31 06:16:13;;;;;;;4.43;2.60;;;12.90;99.90;;;11.93;100.00;62205.88;5078337;28;20083;-71
2021/10/31 06:18:40;;;;;;;4.25;2.17;;;12.90;99.90;;;11.94;100.00;62206.25;5068495;28;20354;-71
2021/10/31 06:21:07;;;;;;;4.10;2.70;;;12.90;99.90;;;11.95;100.00;62206.94;5063067;28;20185;-71
2021/10/31 06:23:35;;;;;;;5.28;2.13;;;13.00;99.90;;;11.95;100.00;62207.31;5069959;28;20136;-71
2021/10/31 06:26:04;;;;;;;5.43;2.25;;;13.00;99.90;;;11.96;100.00;62208.56;5081935;28;20167;-71
2021/10/31 06:28:31;;;;;;;3.97;2.10;;;13.00;99.90;;;11.97;100.00;62208.88;5069937;28;20055;-73
2021/10/31 06:30:58;;;;;;;3.58;2.30;;;13.10;99.90;;;11.98;100.00;62209.78;5065259;28;20048;-71
2021/10/31 06:33:26;;;;;;;3.88;2.10;;;13.10;99.90;;;11.98;100.00;62210.00;5087713;28;20156;-71
2021/10/31 06:35:54;;;;;;;3.83;2.38;;;13.10;99.90;;;11.99;100.00;62210.81;5086790;28;20123;-71
2021/10/31 06:38:21;;;;;;;5.05;1.63;;;13.10;99.90;;;12.00;100.00;62211.91;5078676;28;20489;-71
2021/10/31 06:40:48;;;;;;;8.13;2.22;;;13.10;99.90;;;12.01;100.00;62213.00;5066586;28;20072;-71
2021/10/31 06:43:16;;;;;;;3.65;2.05;;;13.00;99.90;;;12.01;100.00;62213.44;5065633;28;20076;-71
2021/10/31 06:45:44;;;;;;;5.68;2.67;;;13.10;99.90;;;12.02;100.00;62214.09;5056303;28;20091;-71
2021/10/31 06:48:11;;;;;;;4.53;2.10;;;13.10;99.90;;;12.03;100.00;62214.91;5058572;28;20048;-71
2021/10/31 06:50:38;;;;;;;5.18;2.10;;;13.20;99.90;;;12.03;100.00;62215.47;5072583;28;20135;-71
2021/10/31 06:53:06;;;;;;;4.57;2.03;;;13.20;99.90;;;12.04;100.00;62216.13;5094963;28;20192;-71
2021/10/31 06:55:34;;;;;;;3.13;2.10;;;13.20;99.90;;;12.05;100.00;62217.38;5067491;28;20128;-71
2021/10/31 06:58:02;;;;;;;3.35;2.03;;;13.20;99.90;;;12.06;100.00;62217.59;5074341;28;20079;-71
2021/10/31 07:00:29;;;;;;;3.72;1.63;;;13.30;99.90;;;12.07;100.00;62218.81;5082848;28;20056;-71
2021/10/31 07:02:56;;;;;;;4.13;1.73;;;13.30;99.90;;;12.08;100.00;62219.59;5069301;28;20399;-71
2021/10/31 07:05:25;;;;;;;3.17;1.90;;;;;;;12.09;100.00;62221.13;5075738;28;20044;-71
2021/10/31 07:07:53;;;;;;;3.35;1.67;;;;;;;12.10;100.00;62222.63;5087526;28;20090;-71
2021/10/31 07:10:21;;;;;;;5.18;1.70;;;;;;;12.12;100.00;62224.84;5070406;28;20083;-71
2021/10/31 07:12:49;;;;;;;3.97;1.90;;;;;;;12.14;100.00;62226.59;5068787;28;20166;-71
2021/10/31 07:15:17;;;;;;;3.55;1.58;;;;;;;12.17;100.00;62228.91;5087408;28;20130;-71
2021/10/31 07:17:46;;;;;;;3.08;1.40;;;;;;;12.19;100.00;62231.91;5070700;28;20060;-71
2021/10/31 07:20:14;;;;;;;3.30;1.27;;;;;;;12.23;100.00;62235.44;5061019;28;20538;-71
2021/10/31 07:22:42;;;;;;;2.67;1.13;;;13.60;99.90;;;12.26;100.00;62238.81;5108392;28;20513;-72
2021/10/31 07:25:10;;;;;;;5.40;1.42;;;13.70;99.90;;;12.29;100.00;62241.22;5092952;28;20052;-71
2021/10/31 07:27:38;;;;;;;2.70;1.27;;;13.80;99.90;;;12.32;100.00;62244.53;5091462;28;20453;-71
2021/10/31 07:30:06;;;;;;;2.55;1.35;;;13.90;99.90;;;12.34;100.00;62247.25;5086407;28;20108;-71
2021/10/31 07:32:33;;;;;;;2.25;1.20;;;14.00;99.90;;;12.37;100.00;62250.16;5090305;28;20082;-71
2021/10/31 07:35:00;;;;;;;3.95;2.30;;;14.10;99.90;;;12.39;100.00;62252.69;5088799;28;20125;-71
2021/10/31 07:37:30;;;;;;;5.75;3.00;;;14.10;99.90;;;12.41;100.00;62255.47;5055579;28;20074;-72
2021/10/31 07:39:58;;;;;;;9.27;3.40;;;14.10;99.90;;;12.44;100.00;62258.19;5088665;28;20047;-71
2021/10/31 07:42:28;;;;;;;7.75;3.17;;;14.10;99.90;;;12.47;100.00;62261.47;5088779;28;20135;-72
2021/10/31 07:44:57;;;;;;;12.20;8.02;;;14.20;99.90;;;12.50;99.58;62264.28;5088634;28;20079;-71
2021/10/31 07:47:25;;;;;;;7.88;2.65;;;14.20;99.90;;;12.54;98.75;62268.56;5069274;28;20052;-72
2021/10/31 07:49:52;;;;;;;3.58;2.00;;;14.40;99.90;;;12.59;97.87;62273.72;5067313;28;20072;-71
2021/10/31 07:52:21;;;;;;;3.40;1.50;;;14.50;99.90;;;12.65;96.93;62280.00;5088614;28;20069;-71
2021/10/31 07:54:49;;;;;;;3.55;1.40;;;14.60;99.90;;;12.72;95.52;62287.13;5069545;28;20083;-71
2021/10/31 07:57:19;;;;;;;2.33;1.30;;;14.70;99.90;;;12.78;94.82;62294.09;5090340;28;20080;-71
2021/10/31 07:59:46;;;;;;;2.85;1.10;;;14.90;99.90;;;12.86;93.62;62301.72;5071749;28;20075;-71
2021/10/31 08:02:13;;;;;;;2.92;0.90;;;14.90;99.90;;;12.93;93.14;62309.19;5079146;28;20125;-72
2021/10/31 08:04:40;;;;;;;2.33;0.95;;;14.90;99.90;;;13.00;93.13;62316.88;5090237;28;20044;-71
2021/10/31 08:07:07;;;;;;;4.32;1.08;;;14.90;99.90;;;13.06;93.50;62322.63;5090395;28;20513;-71
2021/10/31 08:09:34;;;;;;;3.70;1.25;;;15.00;99.90;;;13.12;93.56;62328.88;5085022;28;20112;-71
2021/10/31 08:12:01;;;;;;;2.78;1.10;;;15.00;99.90;;;13.17;93.44;62334.56;5088693;28;20465;-70
2021/10/31 08:14:28;;;;;;;2.35;1.10;;;15.10;99.90;;;13.23;92.12;62340.03;5075717;28;20147;-71
2021/10/31 08:16:55;;;;;;;4.53;1.00;;;15.10;99.90;;;13.26;92.40;62344.31;5083949;28;20131;-70
2021/10/31 08:19:25;;;;;;;1.90;1.00;;;15.10;99.90;;;13.31;92.59;62349.28;5089716;28;20074;-70
2021/10/31 08:21:53;;;;;;;2.97;1.42;;;15.10;99.90;;;13.35;93.02;62353.56;5077514;28;20091;-70
2021/10/31 08:24:21;;;;;;;2.35;0.82;;;15.20;99.90;;;13.39;92.51;62358.22;5088599;28;20528;-71
2021/10/31 08:26:48;;;;;;;2.70;1.00;;;15.20;99.90;;;13.43;92.27;62362.06;5086921;28;20156;-71
2021/10/31 08:29:18;;;;;;;2.22;1.00;;;15.10;99.90;;;13.46;91.30;62365.75;5088232;28;20058;-70
2021/10/31 08:31:49;;;;;;;2.85;1.20;;;15.10;99.90;;;13.49;91.65;62368.00;5084010;28;20143;-71
2021/10/31 08:34:16;;;;;;;4.88;1.17;;;15.10;99.90;;;13.52;92.31;62370.56;5089144;28;20130;-71
2021/10/31 08:36:43;;;;;;;2.38;1.35;;;15.10;99.90;;;13.54;92.54;62372.59;5089929;28;20119;-70
2021/10/31 08:39:10;;;;;;;2.80;0.93;;;15.10;99.90;;;13.56;92.00;62374.91;5066917;28;20215;-70
2021/10/31 08:41:37;;;;;;;1.92;0.98;;;15.10;99.90;;;13.59;91.62;62377.91;5081393;28;20070;-70
2021/10/31 08:44:06;;;;;;;1.85;0.95;;;15.10;99.90;;;13.61;90.76;62380.38;5055610;28;20060;-71
2021/10/31 08:46:34;;;;;;;3.47;1.23;;;15.10;99.90;;;13.64;90.82;62383.25;5085568;28;20079;-71
2021/10/31 08:49:04;;;;;;;2.63;1.15;;;;;;;13.66;90.44;62385.44;5072810;28;20094;-70
2021/10/31 08:51:33;;;;;;;1.73;0.90;;;;;;;13.68;90.64;62388.19;5086648;28;20097;-70
2021/10/31 08:54:02;;;;;;;2.67;1.17;;;;;;;13.72;90.10;62391.84;5088018;28;20169;-70
2021/10/31 08:56:31;;;;;;;3.92;1.10;;;;;;;13.75;90.58;62395.31;5087664;28;20075;-70
2021/10/31 08:59:00;;;;;;;4.75;1.20;;;;;;;13.77;89.94;62397.94;5079031;28;20493;-70
2021/10/31 09:01:31;;;;;;;2.58;1.42;;;;;;;13.81;90.54;62401.34;5066871;28;20124;-71
2021/10/31 09:04:00;;;;;;;4.93;1.17;;;;;;;13.83;89.99;62404.41;5087507;28;20139;-70
2021/10/31 09:06:30;;;;;;;1.92;1.00;;;;;;;13.86;89.36;62406.81;5084627;28;20063;-71
2021/10/31 09:09:03;;;;;;;3.38;1.20;;;;;;;13.88;90.11;62408.69;5086800;28;20152;-71
2021/10/31 09:11:32;;;;;;;;;;;;;;;13.91;89.99;62411.56;5088541;28;20076;-71
2021/10/31 09:13:59;;;;;;;2.08;0.95;;;;;;;13.94;89.63;62414.75;5087166;28;20362;-71
2021/10/31 09:16:26;;;;;;;5.80;1.48;;;15.50;99.90;;;13.95;90.82;62416.53;5081497;28;20047;-70
2021/10/31 09:18:53;;;;;;;2.83;1.20;;;15.50;99.90;;;13.97;90.80;62418.56;5078540;28;21134;-72
2021/10/31 09:21:23;;;;;;;2.47;1.30;;;15.50;99.90;;;13.99;90.56;62419.91;5064519;28;20044;-72
2021/10/31 09:23:50;;;;;;;3.53;1.33;;;15.50;99.90;;;14.01;90.30;62422.38;5086865;28;20267;-72
2021/10/31 09:26:19;;;;;;;3.03;1.10;;;15.60;99.90;;;14.04;89.23;62425.50;5084845;28;20075;-71
2021/10/31 09:28:47;;;;;;;2.28;1.15;;;;;;;14.06;90.01;62427.69;5087512;28;20071;-72
2021/10/31 09:31:15;;;;;;;3.05;1.10;;;;;;;14.08;89.47;62429.69;5084330;28;20086;-72
2021/10/31 09:33:43;;;;;;;2.95;1.45;;;;;;;14.10;89.82;62432.19;5082604;28;20490;-71
2021/10/31 09:36:12;;;;;;;1.98;1.00;;;;;;;14.14;89.57;62435.72;5088344;28;20454;-73
2021/10/31 09:38:40;;;;;;;3.53;0.93;;;;;;;14.17;89.50;62439.28;5067641;28;20052;-73
2021/10/31 09:41:11;;;;;;;2.63;1.00;;;;;;;14.21;88.78;62443.50;5088232;28;20043;-72
2021/10/31 09:43:47;;;;;;;2.95;1.08;;;;;;;14.25;88.86;62446.91;5087377;28;20130;-72
2021/10/31 09:46:14;;;;;;;3.20;1.20;;;;;;;14.28;88.59;62450.59;5079295;28;20131;-72
2021/10/31 09:48:42;;;;;;;2.15;1.02;;;;;;;14.32;87.87;62454.31;5066491;28;20082;-71
2021/10/31 09:51:09;;;;;;;3.25;1.20;;;;;;;14.35;88.22;62457.84;5081654;28;20151;-71
2021/10/31 09:53:39;;;;;;;2.30;1.00;;;;;;;14.39;87.39;62462.00;5089271;28;20122;-70
2021/10/31 09:56:06;;;;;;;3.10;1.38;;;;;;;14.42;86.53;62465.13;5096711;28;20081;-70
2021/10/31 09:58:40;;;;;;;4.30;1.00;;;;;;;14.46;86.27;62468.97;5087870;28;20084;-71
2021/10/31 10:04:33;;;;;;;1.85;0.82;;;;;;;14.52;86.15;62476.25;5080329;28;20048;-72
2021/10/31 10:07:05;;;;;;;3.45;0.95;;;;;;;14.57;86.12;62480.47;5083533;28;20105;-70
2021/10/31 10:09:33;;;;;;;;;;;;;;;14.61;84.99;62485.84;5065843;28;20082;-70
2021/10/31 10:12:13;;;;;;;1.98;0.90;;;;;;;14.67;84.94;62491.72;5066366;28;19971;-71
2021/10/31 10:14:41;;;;;;;2.80;0.82;;;;;;;14.73;84.23;62497.72;5063973;28;20481;-72
2021/10/31 10:17:13;;;;;;;2.35;0.95;;;;;;;14.81;83.33;62506.22;5082254;28;20048;-70
2021/10/31 10:19:57;;;;;;;1.67;0.73;;;;;;;14.87;82.66;62512.38;5074433;28;20105;-72
2021/10/31 10:22:26;;;;;;;2.40;1.00;;;;;;;14.91;83.92;62517.16;5080669;28;20044;-71
2021/10/31 10:24:57;;;;;;;2.35;0.60;;;;;;;14.96;83.21;62522.06;5072387;28;20474;-71
2021/10/31 10:27:27;;;;;;;1.85;0.70;;;;;;;15.01;82.81;62527.06;5092672;28;20128;-71
2021/10/31 10:29:56;;;;;;;1.83;0.65;;;;;;;15.06;82.85;62531.72;5068089;28;20127;-72
2021/10/31 10:32:26;;;;;;;1.38;0.80;;;;;;;15.10;82.91;62536.28;5073445;28;20428;-71
2021/10/31 10:34:58;;;;;;;1.27;0.60;;;;;;;15.14;81.83;62540.50;5091247;28;20467;-71
2021/10/31 10:37:32;;;;;;;1.98;0.82;;;;;;;15.19;82.09;62545.72;5070957;28;20522;-71
2021/10/31 10:40:14;;;;;;;4.22;0.80;;;;;;;15.23;81.96;62550.00;5069290;28;20131;-71
2021/10/31 10:43:02;;;;;;;2.35;0.70;;;;;;;15.26;81.89;62553.41;5049419;28;20087;-70
2021/10/31 10:45:32;;;;;;;0.90;0.60;;;;;;;15.30;82.04;62557.53;5069304;28;20090;-72
2021/10/31 10:48:02;;;;;;;3.42;0.68;;;;;;;15.33;81.47;62560.94;5072299;28;20138;-71
2021/10/31 10:50:38;;;;;;;3.03;0.80;;;;;;;15.36;81.31;62563.91;5073827;28;20489;-71
2021/10/31 10:53:17;;;;;;;2.58;0.88;;;;;;;15.41;80.94;62569.56;5093148;28;20117;-71
2021/10/31 10:55:46;;;;;;;1.25;0.60;;;;;;;15.46;80.72;62574.59;5090268;28;20113;-72
2021/10/31 10:58:18;;;;;;;2.10;0.70;;;;;;;15.53;79.30;62581.88;5056461;28;20047;-71